Time;durP1;ratioP1;P1;durP2;ratioP2;P2;SDS_P1;SDS_P2;PMS_P1;PMS_P2;Temp;Humidity;BMP_temperature;BMP_pressure;BME280_temperature;BME280_humidity;BME280_pressure;Samples;Min_cycle;Max_cycle;Signal;HPM_P1;HPM_P2
2023/01/27 05:22:33;;;;;;;9.43;4.63;;;;;;;-0.61;100.00;100656.22;5088954;28;20847;-64
2023/01/27 05:24:58;;;;;;;9.27;4.82;;;;;;;-0.58;100.00;100653.44;5089101;28;20028;-63
2023/01/27 05:27:23;;;;;;;8.10;4.90;;;;;;;-0.53;100.00;100650.53;5087396;28;20039;-64
2023/01/27 05:29:49;;;;;;;8.85;5.20;;;;;;;-0.46;100.00;100653.63;5088965;28;20063;-63
2023/01/27 05:32:14;;;;;;;11.07;6.57;;;;;;;-0.43;100.00;100653.44;5089256;28;20568;-60
2023/01/27 05:34:40;;;;;;;13.85;6.50;;;;;;;-0.54;100.00;100654.09;5088940;28;20050;-62
2023/01/27 05:37:05;;;;;;;9.48;5.43;;;;;;;-0.49;100.00;100657.28;5088593;28;20040;-62
2023/01/27 05:39:30;;;;;;;7.75;6.28;;;;;;;-0.53;100.00;100647.91;5087400;28;20445;-62
2023/01/27 05:41:56;;;;;;;10.88;4.95;;;;;;;-0.47;100.00;100652.78;5088623;28;20036;-62
2023/01/27 05:44:21;;;;;;;10.82;5.60;;;;;;;-0.39;100.00;100654.94;5088619;28;20050;-62
2023/01/27 05:46:46;;;;;;;7.35;5.30;;;;;;;-0.41;100.00;100662.03;5088450;28;20070;-63
2023/01/27 05:49:12;;;;;;;11.68;6.03;;;;;;;-0.44;100.00;100667.47;5088321;28;20055;-63
2023/01/27 05:51:38;;;;;;;10.82;5.47;;;;;;;-0.46;100.00;100667.53;5087269;28;20085;-62
2023/01/27 05:54:05;;;;;;;9.77;5.10;;;;;;;-0.42;100.00;100661.19;5088528;28;20044;-62
2023/01/27 05:56:30;;;;;;;9.50;5.60;;;;;;;-0.35;100.00;100670.38;5088381;28;20036;-62
2023/01/27 05:58:57;;;;;;;14.52;5.30;;;;;;;-0.43;100.00;100664.75;5088084;28;20036;-63
2023/01/27 06:01:26;;;;;;;7.68;5.53;;;;;;;-0.34;100.00;100679.91;5088284;28;20066;-63
2023/01/27 06:03:51;;;;;;;10.55;5.38;;;;;;;-0.31;100.00;100665.78;5087096;28;20138;-63
2023/01/27 06:06:19;;;;;;;9.55;5.55;;;;;;;-0.37;100.00;100661.78;5088429;28;20484;-63
2023/01/27 06:08:46;;;;;;;14.32;6.45;;;;;;;-0.37;100.00;100653.09;5087983;28;20047;-62
2023/01/27 06:11:12;;;;;;;9.18;5.22;;;;;;;-0.28;100.00;100666.44;5088025;28;20035;-62
2023/01/27 06:13:37;;;;;;;9.50;5.07;;;;;;;-0.33;100.00;100671.13;5088003;28;20479;-62
2023/01/27 06:16:12;;;;;;;14.07;5.95;;;;;;;-0.28;100.00;100676.06;5087875;28;20137;-62
2023/01/27 06:18:38;;;;;;;13.00;6.47;;;;;;;-0.25;100.00;100672.44;5087603;28;20040;-62
2023/01/27 06:21:07;;;;;;;11.02;6.18;;;;;;;-0.22;100.00;100678.31;5087609;28;20044;-63
2023/01/27 06:23:32;;;;;;;11.65;5.50;;;;;;;-0.26;100.00;100674.22;5087862;28;20133;-63
2023/01/27 06:26:04;;;;;;;12.35;6.30;;;;;;;-0.27;100.00;100672.50;5087787;28;20583;-61
2023/01/27 06:28:29;;;;;;;15.30;7.70;;;;;;;-0.27;100.00;100680.38;5087423;28;20068;-63
2023/01/27 06:30:55;;;;;;;13.23;7.05;;;;;;;-0.28;100.00;100684.75;5086606;28;20056;-63
2023/01/27 06:33:20;;;;;;;10.63;5.50;;;;;;;-0.28;100.00;100689.16;5077270;28;20408;-63
2023/01/27 06:35:47;;;;;;;12.48;6.78;;;;;;;-0.25;100.00;100698.63;5074141;28;20111;-63
2023/01/27 06:38:14;;;;;;;12.63;6.95;;;;;;;-0.25;100.00;100694.22;5073753;28;20041;-61
2023/01/27 06:40:40;;;;;;;14.90;7.63;;;;;;;-0.31;100.00;100699.84;5074013;28;20036;-62
2023/01/27 06:43:11;;;;;;;15.38;7.57;;;;;;;-0.23;100.00;100700.19;5074021;28;20033;-63
2023/01/27 06:45:36;;;;;;;12.15;6.20;;;;;;;-0.23;100.00;100700.19;5073927;28;20266;-63
2023/01/27 06:48:02;;;;;;;12.65;7.00;;;;;;;-0.25;100.00;100701.25;5072508;28;20032;-63
2023/01/27 06:50:28;;;;;;;12.73;6.60;;;;;;;-0.31;100.00;100700.66;5074002;28;20504;-61
2023/01/27 06:53:02;;;;;;;10.38;5.95;;;;;;;-0.24;100.00;100701.13;5073923;28;20044;-60
2023/01/27 06:55:28;;;;;;;13.98;6.75;;;;;;;-0.31;100.00;100698.06;5073696;28;20043;-62
2023/01/27 06:57:53;;;;;;;20.85;7.15;;;;;;;-0.29;100.00;100698.78;5073492;28;20020;-62
2023/01/27 07:00:19;;;;;;;12.57;6.28;;;;;;;-0.22;100.00;100701.03;5073151;28;20064;-67
2023/01/27 07:02:44;;;;;;;11.98;6.47;;;;;;;-0.22;100.00;100701.03;5073942;28;20547;-67
2023/01/27 07:05:10;;;;;;;14.73;5.88;;;;;;;-0.32;100.00;100709.47;5073747;28;20040;-62
2023/01/27 07:07:36;;;;;;;14.05;7.00;;;;;;;-0.27;100.00;100706.53;5080747;28;20551;-62
2023/01/27 07:10:03;;;;;;;12.40;6.80;;;;;;;-0.27;100.00;100715.25;5093993;28;20408;-61
2023/01/27 07:12:28;;;;;;;12.43;6.55;;;;;;;-0.22;100.00;100706.28;5093872;28;20115;-48
2023/01/27 07:14:53;;;;;;;12.80;6.38;;;;;;;-0.25;100.00;100719.56;5093700;28;20486;-53
2023/01/27 07:17:19;;;;;;;18.08;6.75;;;;;;;-0.19;100.00;100717.41;5092891;28;20020;-50
2023/01/27 07:19:44;;;;;;;12.15;6.45;;;;;;;-0.15;100.00;100720.69;5093558;28;20135;-64
2023/01/27 07:22:10;;;;;;;7.53;5.20;;;;;;;-0.11;100.00;100722.19;5093572;28;20088;-64
2023/01/27 07:24:35;;;;;;;8.48;5.38;;;;;;;-0.13;100.00;100724.03;5092280;28;20484;-64
2023/01/27 07:27:00;;;;;;;12.60;6.97;;;;;;;-0.14;100.00;100730.22;5092088;28;20047;-64
2023/01/27 07:29:26;;;;;;;11.23;5.43;;;;;;;-0.13;100.00;100738.00;5091380;28;20040;-64
2023/01/27 07:31:51;;;;;;;12.85;7.43;;;;;;;-0.05;100.00;100742.78;5092340;28;20043;-68
2023/01/27 07:34:16;;;;;;;13.25;5.30;;;;;;;-0.03;100.00;100738.28;5093606;28;20159;-63
2023/01/27 07:36:42;;;;;;;13.80;6.60;;;;;;;-0.03;100.00;100748.75;5093219;28;20548;-63
2023/01/27 07:39:07;;;;;;;8.82;5.05;;;;;;;0.01;100.00;100750.25;5092269;28;20043;-62
2023/01/27 07:41:33;;;;;;;10.98;5.43;;;;;;;-0.06;100.00;100746.31;5092448;28;20035;-64
2023/01/27 07:44:00;;;;;;;14.27;6.78;;;;;;;0.12;100.00;100760.06;5090172;28;20036;-68
2023/01/27 07:46:26;;;;;;;10.57;5.78;;;;;;;0.17;100.00;100756.22;5091062;28;20048;-63
2023/01/27 07:48:51;;;;;;;9.75;5.38;;;;;;;0.19;100.00;100761.38;5092148;28;20378;-63
2023/01/27 07:51:17;;;;;;;9.88;5.90;;;;;;;0.18;100.00;100759.69;5093123;28;20067;-63
2023/01/27 07:53:42;;;;;;;10.55;5.30;;;;;;;0.14;100.00;100774.78;5093102;28;20112;-62
2023/01/27 07:56:10;;;;;;;10.45;5.30;;;;;;;0.07;100.00;100773.47;5093093;28;20512;-64
2023/01/27 07:58:38;;;;;;;;;;;;;;;0.03;100.00;100774.56;5093141;28;20044;-61
2023/01/27 08:01:09;;;;;;;7.22;3.70;;;;;;;0.00;100.00;100766.91;5093052;28;20289;-67
2023/01/27 08:03:35;;;;;;;9.90;4.60;;;;;;;0.04;100.00;100778.88;5092040;28;20032;-63
2023/01/27 08:06:11;;;;;;;8.05;5.15;;;;;;;0.11;100.00;100777.56;5073458;28;20115;-62
2023/01/27 08:08:37;;;;;;;7.97;4.13;;;;;;;0.11;100.00;100785.41;5089803;28;20496;-64
2023/01/27 08:11:07;;;;;;;8.65;4.57;;;;;;;0.16;100.00;100783.38;5091553;28;20039;-62
2023/01/27 08:13:33;;;;;;;10.70;5.85;;;;;;;0.20;100.00;100784.03;5091510;28;20044;-63
2023/01/27 08:16:00;;;;;;;8.93;4.28;;;;;;;0.19;100.00;100783.16;5091422;28;20040;-65
2023/01/27 08:18:28;;;;;;;7.35;4.53;;;;;;;0.14;99.78;100782.63;5091982;28;20111;-64
2023/01/27 08:20:54;;;;;;;7.88;4.28;;;;;;;0.11;100.00;100790.66;5074377;28;20485;-61
2023/01/27 08:23:21;;;;;;;8.10;3.97;;;;;;;0.07;99.99;100781.31;5091480;28;20035;-61
2023/01/27 08:25:54;;;;;;;8.10;3.92;;;;;;;0.14;99.67;100785.25;5092772;28;20040;-64
2023/01/27 08:28:21;;;;;;;8.20;4.13;;;;;;;0.18;98.23;100788.50;5091203;28;20067;-65
2023/01/27 08:30:50;;;;;;;5.28;3.90;;;;;;;0.19;96.49;100788.41;5091657;28;20400;-64
2023/01/27 08:33:21;;;;;;;3.60;2.75;;;;;;;0.13;95.97;100778.31;5091418;28;20067;-66
2023/01/27 08:35:48;;;;;;;6.00;3.17;;;;;;;0.19;95.96;100780.53;5092297;28;20075;-65
2023/01/27 08:38:16;;;;;;;5.13;3.20;;;;;;;0.24;95.81;100775.88;5092238;28;20040;-61
2023/01/27 08:40:42;;;;;;;6.15;3.22;;;;;;;0.27;95.61;100787.97;5092513;28;20040;-64
2023/01/27 08:43:08;;;;;;;5.45;3.42;;;;;;;0.26;94.99;100784.50;5093248;28;20036;-64
2023/01/27 08:45:34;;;;;;;5.15;3.20;;;;;;;0.32;94.84;100787.66;5092357;28;20032;-64
2023/01/27 08:48:00;;;;;;;4.50;3.33;;;;;;;0.34;94.35;100778.78;5090664;28;20513;-66
2023/01/27 08:50:26;;;;;;;7.40;3.60;;;;;;;0.36;94.12;100779.53;5092152;28;20036;-66
2023/01/27 08:52:57;;;;;;;4.82;2.80;;;;;;;0.36;93.99;100781.31;5092056;28;20123;-66
2023/01/27 08:55:28;;;;;;;5.28;3.13;;;;;;;0.40;93.75;100778.41;5090729;28;20032;-62
2023/01/27 08:57:54;;;;;;;4.60;3.25;;;;;;;0.36;93.60;100779.53;5090607;28;20484;-65
2023/01/27 09:00:19;;;;;;;6.72;3.45;;;;;;;0.42;93.38;100786.16;5091841;28;20123;-61
2023/01/27 09:02:45;;;;;;;7.53;4.13;;;;;;;0.48;93.01;100783.16;5091938;28;20036;-64
2023/01/27 09:05:10;;;;;;;4.93;3.03;;;;;;;0.48;92.64;100783.16;5090543;28;20048;-65
2023/01/27 09:07:36;;;;;;;5.82;2.55;;;;;;;0.55;92.52;100773.97;5091516;28;20405;-63
2023/01/27 09:10:01;;;;;;;3.75;2.92;;;;;;;0.54;91.96;100780.16;5090461;28;20036;-61
2023/01/27 09:12:27;;;;;;;5.30;2.72;;;;;;;0.63;91.78;100776.94;5091696;28;20373;-65
2023/01/27 09:14:52;;;;;;;4.07;3.22;;;;;;;0.69;91.08;100788.84;5090556;28;20038;-66
2023/01/27 09:17:18;;;;;;;5.60;2.88;;;;;;;0.69;90.11;100791.47;5091270;28;20119;-66
2023/01/27 09:19:45;;;;;;;2.90;2.10;;;;;;;0.72;89.87;100794.75;5090301;28;20040;-65
2023/01/27 09:22:11;;;;;;;3.60;2.30;;;;;;;0.74;89.26;100799.88;5091490;28;20056;-65
2023/01/27 09:24:36;;;;;;;5.65;3.03;;;;;;;0.76;88.31;100793.59;5091615;28;20070;-61
2023/01/27 09:27:01;;;;;;;4.07;2.35;;;;;;;0.72;88.26;100796.53;5091277;28;20449;-63
2023/01/27 09:29:28;;;;;;;3.25;1.83;;;;;;;0.78;87.85;100803.97;5091455;28;20032;-66
2023/01/27 09:31:53;;;;;;;4.40;2.40;;;;;;;0.77;87.37;100804.91;5091642;28;20065;-65
2023/01/27 09:34:19;;;;;;;2.97;2.13;;;;;;;0.79;87.47;100809.16;5091480;28;20040;-65
2023/01/27 09:36:49;;;;;;;3.83;2.28;;;;;;;0.77;87.97;100813.63;5091428;28;20181;-64
2023/01/27 09:39:16;;;;;;;4.10;2.45;;;;;;;0.82;87.46;100814.19;5091158;28;20080;-66
2023/01/27 09:42:06;;;;;;;3.25;2.30;;;;;;;0.80;87.68;100816.06;5091325;28;20036;-66
2023/01/27 09:44:53;;;;;;;3.65;2.03;;;;;;;0.85;88.10;100814.91;5091571;28;20419;-65
2023/01/27 09:47:55;;;;;;;4.57;2.53;;;;;;;0.87;87.87;100802.56;5089921;28;20039;-66
2023/01/27 09:50:28;;;;;;;5.15;2.88;;;;;;;1.00;87.40;100808.72;5090233;28;20135;-66
2023/01/27 09:53:12;;;;;;;2.88;2.42;;;;;;;1.08;86.05;100806.44;5091565;28;20036;-66
2023/01/27 09:55:48;;;;;;;3.65;1.63;;;;;;;1.08;85.81;100809.91;5091234;28;20031;-65
2023/01/27 09:58:19;;;;;;;4.65;2.50;;;;;;;1.20;84.92;100804.81;5091203;28;20032;-64
2023/01/27 10:01:00;;;;;;;4.93;2.15;;;;;;;1.20;84.33;100812.69;5091302;28;20039;-66
2023/01/27 10:04:05;;;;;;;2.67;1.98;;;;;;;1.23;84.08;100813.31;5091431;28;20554;-65
2023/01/27 10:06:49;;;;;;;3.95;2.28;;;;;;;1.23;83.08;100808.06;5091330;28;20032;-66
2023/01/27 10:09:40;;;;;;;3.38;1.80;;;;;;;1.18;83.83;100815.41;5094575;28;20051;-64
2023/01/27 10:12:43;;;;;;;3.78;1.90;;;;;;;1.18;83.13;100815.41;5095230;28;20032;-64
2023/01/27 10:15:15;;;;;;;2.47;1.50;;;;;;;1.23;83.95;100805.44;5095030;28;20036;-64
2023/01/27 10:17:59;;;;;;;3.88;2.05;;;;;;;1.23;83.15;100804.59;5094762;28;20040;-65
2023/01/27 10:20:33;;;;;;;1.55;1.30;;;;;;;1.25;83.55;100811.44;5094750;28;20036;-63
2023/01/27 10:23:19;;;;;;;2.35;1.45;;;;;;;1.16;82.70;100804.16;5094815;28;20134;-65
2023/01/27 10:25:56;;;;;;;1.95;1.17;;;;;;;1.12;82.95;100809.72;5094638;28;20493;-66
2023/01/27 10:28:23;;;;;;;3.08;1.98;;;;;;;1.14;82.18;100807.81;5094388;28;20402;-63
2023/01/27 10:31:04;;;;;;;5.80;2.28;;;;;;;1.15;82.78;100809.50;5076509;28;20476;-64
2023/01/27 10:33:44;;;;;;;4.20;2.20;;;;;;;1.11;82.95;100803.63;5094456;28;20481;-66
2023/01/27 10:36:21;;;;;;;4.72;1.92;;;;;;;1.25;82.30;100805.34;5094483;28;20097;-68
2023/01/27 10:39:01;;;;;;;3.35;1.98;;;;;;;1.34;81.65;100804.75;5093651;28;20067;-63
2023/01/27 10:42:04;;;;;;;1.70;1.38;;;;;;;1.38;83.29;100803.59;5094691;28;20036;-64
2023/01/27 10:44:48;;;;;;;1.15;1.05;;;;;;;1.45;81.52;100801.41;5087680;28;20044;-64
2023/01/27 10:47:50;;;;;;;1.67;1.52;;;;;;;1.56;80.10;100804.16;5094094;28;20063;-64
2023/01/27 10:50:26;;;;;;;5.53;2.50;;;;;;;1.58;79.92;100802.28;5094457;28;20030;-66
2023/01/27 10:53:11;;;;;;;2.70;2.03;;;;;;;1.58;82.06;100797.03;5094364;28;20473;-64
2023/01/27 10:56:10;;;;;;;3.78;1.95;;;;;;;1.53;80.05;100797.34;5094253;28;20032;-65
2023/01/27 10:59:35;;;;;;;2.05;1.33;;;;;;;1.51;79.91;100796.59;5091329;28;20055;-65
2023/01/27 11:02:16;;;;;;;1.85;1.40;;;;;;;1.61;79.37;100804.69;5040952;28;20099;-65
2023/01/27 11:04:48;;;;;;;2.47;1.65;;;;;;;1.50;80.34;100796.69;5051502;28;20123;-65
2023/01/27 11:07:21;;;;;;;3.05;1.95;;;;;;;1.55;81.05;100790.19;5082720;28;20119;-65
2023/01/27 11:10:16;;;;;;;1.88;1.67;;;;;;;1.56;81.59;100791.88;5094178;28;20492;-65
2023/01/27 11:12:46;;;;;;;1.80;1.70;;;;;;;1.67;81.18;100793.78;5094507;28;20190;-65
2023/01/27 11:15:33;;;;;;;3.20;2.33;;;;;;;1.65;80.49;100787.81;5094082;28;20032;-65
2023/01/27 11:18:02;;;;;;;2.38;1.38;;;;;;;1.66;80.35;100789.47;5093135;28;20378;-53
2023/01/27 11:20:37;;;;;;;4.55;2.13;;;;;;;1.72;81.22;100783.81;5093265;28;20134;-65
2023/01/27 11:23:08;;;;;;;3.00;1.75;;;;;;;1.68;81.19;100786.75;5093282;28;20040;-64
2023/01/27 11:26:04;;;;;;;1.80;1.30;;;;;;;1.66;80.94;100784.22;5093338;28;20039;-65
2023/01/27 11:28:48;;;;;;;2.38;1.73;;;;;;;1.64;80.91;100775.63;5092967;28;20084;-65
2023/01/27 11:31:36;;;;;;;2.83;1.83;;;;;;;1.70;80.08;100782.25;5093802;28;20161;-64
2023/01/27 11:34:04;;;;;;;;;;;;;;;1.72;80.11;100780.34;5093613;28;20051;-63
2023/01/27 11:36:30;;;;;;;2.22;1.40;;;;;;;1.65;81.17;100779.94;5093177;28;20273;-64
2023/01/27 11:39:03;;;;;;;2.42;1.70;;;;;;;1.67;80.54;100777.19;5091860;28;20047;-65
2023/01/27 11:41:32;;;;;;;2.92;1.98;;;;;;;1.74;80.50;100775.81;5093209;28;20032;-65
2023/01/27 11:44:03;;;;;;;3.15;2.47;;;;;;;1.72;80.70;100783.81;5093181;28;20082;-65
2023/01/27 11:46:30;;;;;;;2.42;1.92;;;;;;;1.72;80.30;100778.56;5091748;28;20028;-65
2023/01/27 11:48:57;;;;;;;2.28;1.20;;;;;;;1.72;79.73;100782.97;5092656;28;20036;-64
2023/01/27 11:51:34;;;;;;;4.90;1.67;;;;;;;1.72;80.40;100777.72;5093014;28;20035;-65
2023/01/27 11:54:16;;;;;;;2.13;1.60;;;;;;;1.67;79.63;100783.28;5092929;28;20039;-65
2023/01/27 11:56:45;;;;;;;4.50;1.80;;;;;;;1.70;80.28;100769.97;5092695;28;20477;-62
2023/01/27 11:59:21;;;;;;;1.70;1.58;;;;;;;1.68;79.70;100768.34;5092496;28;20050;-60
2023/01/27 12:01:58;;;;;;;2.95;1.63;;;;;;;1.64;80.75;100754.59;5092619;28;20048;-61
2023/01/27 12:04:53;;;;;;;3.15;1.73;;;;;;;1.64;80.69;100765.13;5092661;28;20042;-64
2023/01/27 12:07:43;;;;;;;2.28;1.60;;;;;;;1.70;81.36;100758.59;5092251;28;20046;-66
2023/01/27 12:10:32;;;;;;;1.98;1.13;;;;;;;1.69;80.89;100760.38;5084632;28;20044;-66
2023/01/27 12:13:16;;;;;;;3.20;1.58;;;;;;;1.78;79.81;100759.75;5078787;28;20454;-63
2023/01/27 12:15:59;;;;;;;6.07;1.77;;;;;;;1.85;79.32;100750.50;5052284;28;20086;-64
2023/01/27 12:18:25;;;;;;;2.03;1.83;;;;;;;1.77;79.19;100755.47;5050555;28;20052;-63
2023/01/27 12:20:59;;;;;;;2.17;1.55;;;;;;;1.77;79.35;100755.47;5051962;28;20036;-63
2023/01/27 12:23:46;;;;;;;3.70;1.80;;;;;;;1.71;79.90;100761.13;5050783;28;20056;-64
2023/01/27 12:26:11;;;;;;;3.95;2.08;;;;;;;1.78;81.11;100758.94;5051967;28;20033;-60
2023/01/27 12:28:50;;;;;;;4.63;1.85;;;;;;;1.77;80.35;100760.72;5051803;28;20508;-64
2023/01/27 12:31:44;;;;;;;2.28;1.60;;;;;;;1.74;80.22;100760.91;5051566;28;20033;-63
2023/01/27 12:34:24;;;;;;;2.72;1.67;;;;;;;1.71;80.45;100766.38;5044886;28;20053;-63
2023/01/27 12:36:50;;;;;;;2.05;1.55;;;;;;;1.68;80.50;100768.34;5052012;28;20123;-64
2023/01/27 12:39:33;;;;;;;2.47;1.20;;;;;;;1.68;79.96;100763.94;5051719;28;20032;-63
2023/01/27 12:41:59;;;;;;;2.70;1.75;;;;;;;1.66;79.84;100763.22;5051310;28;20037;-63
2023/01/27 12:44:27;;;;;;;2.67;1.77;;;;;;;1.65;79.91;100766.78;5051806;28;20044;-65
2023/01/27 12:47:30;;;;;;;2.33;1.30;;;;;;;1.63;80.24;100763.44;5051569;28;20060;-65
2023/01/27 12:50:22;;;;;;;2.58;1.95;;;;;;;1.56;80.98;100759.50;5051791;28;20036;-61
2023/01/27 12:53:15;;;;;;;2.65;1.77;;;;;;;1.58;81.04;100760.28;5051574;28;20035;-62
2023/01/27 12:55:55;;;;;;;3.40;1.73;;;;;;;1.64;80.41;100757.22;5051261;28;20037;-62
2023/01/27 12:58:28;;;;;;;1.98;1.77;;;;;;;1.61;81.04;100753.00;5050796;28;20036;-59
2023/01/27 13:00:54;;;;;;;1.35;0.85;;;;;;;1.49;81.73;100751.22;5051328;28;20114;-60
2023/01/27 13:03:20;;;;;;;3.38;1.70;;;;;;;1.59;81.46;100759.31;5050215;28;20068;-63
2023/01/27 13:05:46;;;;;;;1.73;1.60;;;;;;;1.54;82.42;100761.41;5051245;28;20534;-62
2023/01/27 13:08:18;;;;;;;2.08;1.50;;;;;;;1.65;81.56;100761.53;5050523;28;20114;-62
2023/01/27 13:10:52;;;;;;;2.10;1.52;;;;;;;1.71;80.78;100758.50;5051321;28;20040;-64
2023/01/27 13:13:23;;;;;;;4.10;1.88;;;;;;;1.74;81.47;100766.16;5051441;28;20040;-62
2023/01/27 13:16:00;;;;;;;1.95;1.75;;;;;;;1.75;80.55;100767.84;5051180;28;20070;-66
2023/01/27 13:18:32;;;;;;;5.65;1.67;;;;;;;1.74;80.55;100767.94;5050734;28;20056;-67
2023/01/27 13:21:10;;;;;;;2.83;1.60;;;;;;;1.82;80.89;100769.09;5051142;28;20041;-66
2023/01/27 13:23:38;;;;;;;2.53;1.65;;;;;;;1.77;80.13;100776.47;5051081;28;20041;-66
2023/01/27 13:26:13;;;;;;;1.23;1.08;;;;;;;1.80;79.55;100776.25;5051172;28;20041;-65
2023/01/27 13:28:38;;;;;;;3.35;1.58;;;;;;;1.79;79.38;100779.00;5050224;28;20505;-66
2023/01/27 13:31:07;;;;;;;1.40;1.30;;;;;;;1.76;80.40;100781.81;5051619;28;20079;-67
2023/01/27 13:33:46;;;;;;;1.38;1.27;;;;;;;1.83;80.37;100780.47;5051477;28;20054;-66
2023/01/27 13:36:36;;;;;;;2.78;1.33;;;;;;;1.86;80.53;100783.72;5049933;28;20474;-68
2023/01/27 13:39:11;;;;;;;3.67;1.77;;;;;;;1.86;80.82;100782.88;5050880;28;20128;-65
2023/01/27 13:41:59;;;;;;;3.58;2.15;;;;;;;1.84;81.65;100777.72;5051079;28;20375;-66
2023/01/27 13:44:35;;;;;;;1.40;1.30;;;;;;;1.82;80.09;100773.50;5055250;28;20049;-66
2023/01/27 13:47:10;;;;;;;2.33;1.50;;;;;;;1.95;80.54;100776.97;5055143;28;20033;-66
2023/01/27 13:49:45;;;;;;;2.42;1.70;;;;;;;2.00;80.62;100777.50;5055352;28;20052;-66
2023/01/27 13:52:11;;;;;;;1.60;1.42;;;;;;;2.02;78.57;100774.78;5058461;28;20039;-65
2023/01/27 13:54:37;;;;;;;1.30;1.08;;;;;;;1.94;78.58;100766.59;5075061;28;20477;-66
2023/01/27 13:57:27;;;;;;;2.90;1.65;;;;;;;2.05;78.38;100770.16;5074870;28;20029;-65
2023/01/27 14:00:05;;;;;;;3.00;1.73;;;;;;;2.04;78.59;100779.00;5074990;28;20024;-64
2023/01/27 14:03:14;;;;;;;1.70;1.27;;;;;;;1.98;78.35;100770.69;5075010;28;20032;-64
2023/01/27 14:06:12;;;;;;;2.78;1.73;;;;;;;1.96;78.85;100775.22;5074849;28;20039;-64
2023/01/27 14:08:46;;;;;;;2.38;1.50;;;;;;;2.03;78.49;100773.84;5074573;28;20028;-63
2023/01/27 14:11:31;;;;;;;3.80;1.92;;;;;;;2.01;78.79;100775.72;5074868;28;20115;-63
2023/01/27 14:14:15;;;;;;;3.13;1.42;;;;;;;1.99;78.62;100777.63;5073458;28;20078;-63
2023/01/27 14:17:25;;;;;;;1.52;1.23;;;;;;;1.97;78.40;100776.91;5074654;28;20447;-64
2023/01/27 14:20:10;;;;;;;1.30;1.20;;;;;;;1.95;78.93;100770.88;5074706;28;20054;-65
2023/01/27 14:23:05;;;;;;;1.70;1.30;;;;;;;1.97;78.71;100776.91;5074492;28;20036;-64
2023/01/27 14:26:08;;;;;;;3.10;1.55;;;;;;;2.01;79.03;100775.72;5074286;28;20071;-63
2023/01/27 14:28:51;;;;;;;1.65;1.55;;;;;;;1.84;79.20;100772.47;5073975;28;20024;-65
2023/01/27 14:31:21;;;;;;;1.85;1.45;;;;;;;1.71;80.59;100768.16;5074398;28;20133;-67
2023/01/27 14:34:14;;;;;;;2.85;2.03;;;;;;;1.81;80.79;100777.94;5074279;28;20135;-66
2023/01/27 14:36:54;;;;;;;2.67;1.70;;;;;;;1.78;80.08;100780.78;5074368;28;20032;-66
2023/01/27 14:39:25;;;;;;;2.40;1.40;;;;;;;1.83;81.05;100788.34;5074108;28;20040;-67
2023/01/27 14:42:11;;;;;;;1.38;1.23;;;;;;;1.80;80.32;100785.91;5074208;28;20037;-66
2023/01/27 14:44:52;;;;;;;3.22;2.35;;;;;;;1.85;80.61;100776.78;5074248;28;20043;-67
2023/01/27 14:47:41;;;;;;;2.72;1.17;;;;;;;1.86;79.97;100786.34;5073914;28;20110;-67
2023/01/27 14:50:43;;;;;;;1.65;1.23;;;;;;;1.89;80.43;100795.78;5074048;28;20178;-66
2023/01/27 14:53:29;;;;;;;2.30;1.73;;;;;;;1.85;80.79;100795.19;5073607;28;20039;-67
2023/01/27 14:56:15;;;;;;;2.15;1.55;;;;;;;1.84;81.71;100798.75;5073992;28;20040;-66
2023/01/27 14:58:53;;;;;;;2.95;1.73;;;;;;;1.84;81.22;100796.13;5073574;28;20040;-65
2023/01/27 15:01:31;;;;;;;2.35;1.60;;;;;;;1.85;80.82;100805.69;5073984;28;20033;-64
2023/01/27 15:04:04;;;;;;;;;;;;;;;1.86;81.19;100796.00;5074229;28;20055;-63
2023/01/27 15:06:41;;;;;;;1.65;1.38;;;;;;;1.89;81.74;100798.41;5073791;28;19913;-64
2023/01/27 15:09:34;;;;;;;3.08;1.50;;;;;;;1.84;82.13;100798.75;5073834;28;20032;-65
2023/01/27 15:12:27;;;;;;;2.00;1.40;;;;;;;1.90;82.29;100800.97;5073771;28;20099;-64
2023/01/27 15:15:26;;;;;;;1.63;1.40;;;;;;;1.91;81.57;100791.28;5073658;28;20040;-65
2023/01/27 15:18:13;;;;;;;1.30;1.20;;;;;;;1.93;80.84;100794.66;5073361;28;20037;-64
2023/01/27 15:20:59;;;;;;;2.90;1.48;;;;;;;1.95;80.34;100802.41;5073536;28;20035;-62
2023/01/27 15:23:43;;;;;;;1.90;1.58;;;;;;;1.94;80.14;100792.88;5073598;28;20040;-65
2023/01/27 15:26:10;;;;;;;1.55;1.30;;;;;;;1.96;80.81;100806.75;5073446;28;20599;-67
2023/01/27 15:28:41;;;;;;;2.70;1.45;;;;;;;1.94;80.76;100798.94;5072590;28;20062;-66
2023/01/27 15:31:15;;;;;;;1.98;1.40;;;;;;;1.96;81.11;100812.00;5073206;28;20079;-66
2023/01/27 15:33:49;;;;;;;2.45;1.65;;;;;;;1.96;81.89;100814.63;5072958;28;20036;-65
2023/01/27 15:36:26;;;;;;;2.40;1.45;;;;;;;1.97;82.58;100816.31;5071727;28;20045;-66
2023/01/27 15:38:58;;;;;;;2.88;1.98;;;;;;;1.95;82.80;100819.03;5072960;28;20032;-66
2023/01/27 15:41:25;;;;;;;2.10;1.70;;;;;;;1.89;83.34;100808.94;5072990;28;20040;-64
2023/01/27 15:44:26;;;;;;;2.28;1.67;;;;;;;1.82;83.02;100816.38;5073185;28;20070;-65
2023/01/27 15:46:53;;;;;;;2.85;1.55;;;;;;;1.88;83.75;100815.13;5072958;28;20059;-61
2023/01/27 15:49:27;;;;;;;2.77;1.87;;;;;;;1.86;83.63;100817.88;5072971;28;20486;-65
2023/01/27 15:52:09;;;;;;;2.58;1.58;;;;;;;1.85;83.10;100824.06;5073028;28;20036;-64
2023/01/27 15:54:40;;;;;;;2.13;1.52;;;;;;;1.79;83.21;100819.22;5072982;28;20048;-64
2023/01/27 15:57:19;;;;;;;2.15;1.95;;;;;;;1.77;83.11;100821.13;5072592;28;20036;-66
2023/01/27 15:59:48;;;;;;;2.95;1.77;;;;;;;1.66;83.63;100823.63;5071430;28;20058;-62
2023/01/27 16:02:27;;;;;;;2.80;1.90;;;;;;;1.69;83.43;100830.44;5072656;28;20085;-64
2023/01/27 16:05:02;;;;;;;3.13;1.85;;;;;;;1.58;83.84;100832.00;5071890;28;20557;-62
2023/01/27 16:07:34;;;;;;;3.30;1.98;;;;;;;1.60;84.90;100842.41;5070859;28;20051;-62
2023/01/27 16:10:01;;;;;;;2.15;1.58;;;;;;;1.59;84.36;100838.09;5071422;28;20043;-65
2023/01/27 16:12:34;;;;;;;1.65;1.20;;;;;;;1.54;85.99;100840.19;5072573;28;20028;-63
2023/01/27 16:15:00;;;;;;;3.83;2.50;;;;;;;1.55;85.52;100845.34;5038947;28;20490;-66
2023/01/27 16:17:30;;;;;;;2.33;1.55;;;;;;;1.59;84.93;100840.72;5071936;28;20085;-62
2023/01/27 16:20:19;;;;;;;4.53;2.30;;;;;;;1.56;84.65;100844.38;5072357;28;20039;-64
2023/01/27 16:22:52;;;;;;;3.35;1.92;;;;;;;1.57;84.81;100842.63;5073456;28;20032;-65
2023/01/27 16:25:36;;;;;;;1.58;1.42;;;;;;;1.56;85.65;100840.91;5073475;28;20456;-64
2023/01/27 16:28:11;;;;;;;2.50;2.08;;;;;;;1.56;85.16;100841.75;5071960;28;20111;-64
2023/01/27 16:30:42;;;;;;;2.67;1.85;;;;;;;1.64;85.35;100851.78;5070805;28;20473;-64
2023/01/27 16:33:17;;;;;;;5.55;2.67;;;;;;;1.67;86.29;100851.56;5071750;28;20072;-64
2023/01/27 16:35:57;;;;;;;2.97;2.10;;;;;;;1.65;86.77;100842.97;5071280;28;20056;-63
2023/01/27 16:38:28;;;;;;;3.53;2.22;;;;;;;1.66;85.49;100852.50;5071065;28;20029;-66
2023/01/27 16:41:24;;;;;;;3.15;1.85;;;;;;;1.66;85.89;100846.41;5071038;28;20036;-64
2023/01/27 16:43:54;;;;;;;3.47;1.77;;;;;;;1.62;85.53;100843.16;5069842;28;20044;-64
2023/01/27 16:46:45;;;;;;;2.03;1.80;;;;;;;1.59;85.26;100846.81;5070445;28;20440;-59
2023/01/27 16:49:16;;;;;;;2.22;1.50;;;;;;;1.60;84.46;100845.88;5070454;28;20443;-63
2023/01/27 16:51:42;;;;;;;2.13;1.60;;;;;;;1.64;84.63;100854.41;5071820;28;20125;-61
2023/01/27 16:54:33;;;;;;;2.92;2.25;;;;;;;1.65;84.98;100857.88;5071935;28;20078;-63
2023/01/27 16:57:02;;;;;;;3.38;2.08;;;;;;;1.52;84.91;100853.44;5071989;28;20451;-60
2023/01/27 16:59:33;;;;;;;2.60;1.80;;;;;;;1.56;86.03;100859.31;5071668;28;20526;-61
2023/01/27 17:02:00;;;;;;;2.45;1.88;;;;;;;1.57;85.46;100864.47;5071913;28;20056;-61
2023/01/27 17:04:27;;;;;;;3.20;1.83;;;;;;;1.61;85.66;100857.22;5072099;28;20435;-61
2023/01/27 17:07:06;;;;;;;2.22;1.67;;;;;;;1.62;85.61;100869.41;5071866;28;20130;-61
2023/01/27 17:09:38;;;;;;;2.88;2.20;;;;;;;1.63;85.67;100874.59;5071654;28;20044;-60
2023/01/27 17:12:04;;;;;;;1.70;1.60;;;;;;;1.66;85.24;100870.91;5071878;28;20033;-61
2023/01/27 17:14:33;;;;;;;1.95;1.60;;;;;;;1.67;85.14;100879.63;5070405;28;20090;-60
2023/01/27 17:17:01;;;;;;;2.25;1.45;;;;;;;1.61;85.77;100870.34;5071295;28;20409;-62
2023/01/27 17:19:35;;;;;;;3.08;1.88;;;;;;;1.60;86.09;100871.31;5071414;28;20405;-61
2023/01/27 17:22:05;;;;;;;2.15;1.50;;;;;;;1.60;86.01;100874.75;5071409;28;20037;-62
2023/01/27 17:24:33;;;;;;;2.42;2.08;;;;;;;1.62;85.73;100869.41;5071444;28;20090;-62